Time;durP1;ratioP1;P1;durP2;ratioP2;P2;SDS_P1;SDS_P2;PMS_P1;PMS_P2;Temp;Humidity;BMP_temperature;BMP_pressure;BME280_temperature;BME280_humidity;BME280_pressure;Samples;Min_cycle;Max_cycle;Signal;HPM_P1;HPM_P2
2022/01/13 00:01:44;;;;;;;;;;;3.70;99.90;;;;;;5016372;28;19925;-77
2022/01/13 00:04:12;;;;;;;;;;;3.70;99.90;;;;;;5021583;28;19921;-76
2022/01/13 00:06:38;;;;;;;;;;;3.70;99.90;;;;;;5016405;28;19926;-76
2022/01/13 00:09:04;;;;;;;;;;;3.70;99.90;;;;;;5019631;28;19918;-76
2022/01/13 00:11:30;;;;;;;;;;;3.70;99.90;;;;;;5036260;28;19913;-76
2022/01/13 00:14:40;;;;;;;;;;;3.60;99.90;;;;;;5035621;28;20263;-76
2022/01/13 00:19:49;;;;;;;;;;;3.70;99.90;;;;;;5029463;28;19920;-76
2022/01/13 00:25:03;;;;;;;;;;;3.70;99.90;;;;;;5034503;28;19970;-76
2022/01/13 00:27:30;;;;;;;;;;;3.80;99.90;;;;;;5038251;28;19917;-76
2022/01/13 00:29:58;;;;;;;;;;;3.70;99.90;;;;;;5030814;28;19920;-76
2022/01/13 00:32:27;;;;;;;;;;;3.70;99.90;;;;;;5031485;28;19921;-76
2022/01/13 00:34:53;;;;;;;;;;;3.70;99.90;;;;;;5020461;28;19916;-76
2022/01/13 00:37:18;;;;;;;;;;;3.70;99.90;;;;;;5038026;28;20224;-76
2022/01/13 00:39:44;;;;;;;;;;;3.70;99.90;;;;;;5028678;28;19921;-76
2022/01/13 00:42:09;;;;;;;;;;;3.70;99.90;;;;;;5003081;28;19917;-76
2022/01/13 00:44:37;;;;;;;;;;;3.70;99.90;;;;;;5034553;28;19971;-75
2022/01/13 00:47:05;;;;;;;;;;;3.70;99.90;;;;;;5056745;28;19913;-76
2022/01/13 00:49:31;;;;;;;;;;;3.70;99.90;;;;;;5036874;28;19913;-76
2022/01/13 00:51:56;;;;;;;;;;;3.70;99.90;;;;;;5036451;28;19955;-77
2022/01/13 00:54:23;;;;;;;;;;;3.70;99.90;;;;;;5028622;28;19913;-76
2022/01/13 00:56:48;;;;;;;;;;;3.80;99.90;;;;;;5032228;28;19941;-78
2022/01/13 00:59:14;;;;;;;;;;;3.80;99.90;;;;;;5000879;28;19913;-76
2022/01/13 01:01:42;;;;;;;;;;;3.80;99.90;;;;;;5029775;28;19920;-76
2022/01/13 01:04:08;;;;;;;;;;;3.80;99.90;;;;;;5031135;28;20003;-76
2022/01/13 01:06:35;;;;;;;;;;;3.80;99.90;;;;;;5037837;28;20220;-76
2022/01/13 01:09:01;;;;;;;;;;;3.80;99.90;;;;;;5032940;28;19914;-76
2022/01/13 01:11:26;;;;;;;;;;;3.80;99.90;;;;;;5022807;28;19920;-76
2022/01/13 01:13:56;;;;;;;;;;;3.80;99.90;;;;;;5036409;28;19945;-75
2022/01/13 01:16:22;;;;;;;;;;;3.80;99.90;;;;;;5036289;28;19962;-75
2022/01/13 01:24:42;;;;;;;;;;;3.90;99.90;;;;;;5030442;28;19971;-75
2022/01/13 01:26:40;;;;;;;;;;;3.90;99.90;;;;;;5010943;28;19917;-75
2022/01/13 01:31:38;;;;;;;;;;;3.90;99.90;;;;;;5023087;28;19917;-76
2022/01/13 01:36:32;;;;;;;;;;;3.90;99.90;;;;;;5036520;28;19913;-76
2022/01/13 01:38:59;;;;;;;;;;;3.90;99.90;;;;;;5019355;28;19951;-76
2022/01/13 01:41:25;;;;;;;;;;;3.80;99.90;;;;;;5033826;28;19917;-76
2022/01/13 01:43:52;;;;;;;;;;;3.80;99.90;;;;;;5032864;28;19917;-77
2022/01/13 01:46:18;;;;;;;;;;;3.80;99.90;;;;;;5023194;28;19921;-75
2022/01/13 01:48:44;;;;;;;;;;;3.80;99.90;;;;;;5031893;28;19914;-75
2022/01/13 01:51:09;;;;;;;;;;;3.80;99.90;;;;;;5013439;28;20426;-76
2022/01/13 01:53:35;;;;;;;;;;;3.80;99.90;;;;;;5012545;28;20016;-75
2022/01/13 01:56:00;;;;;;;;;;;3.90;99.90;;;;;;5016215;28;20304;-75
2022/01/13 01:58:27;;;;;;;;;;;3.90;99.90;;;;;;5021590;28;19975;-75
2022/01/13 02:00:54;;;;;;;;;;;3.80;99.90;;;;;;5020888;28;19913;-76
2022/01/13 02:03:20;;;;;;;;;;;3.80;99.90;;;;;;5015456;28;20367;-76
2022/01/13 02:05:46;;;;;;;;;;;3.80;99.90;;;;;;5009872;28;19922;-75
2022/01/13 02:08:12;;;;;;;;;;;3.80;99.90;;;;;;5009458;28;19917;-76
2022/01/13 02:10:38;;;;;;;;;;;3.80;99.90;;;;;;5010448;28;19921;-78
2022/01/13 02:13:07;;;;;;;;;;;3.80;99.90;;;;;;4999098;28;19926;-77
2022/01/13 02:16:36;;;;;;;;;;;3.80;99.90;;;;;;5006578;28;20453;-75
2022/01/13 02:18:22;;;;;;;;;;;3.80;99.90;;;;;;4997286;28;19947;-76
2022/01/13 02:20:47;;;;;;;;;;;3.80;99.90;;;;;;5009143;28;20333;-75
2022/01/13 02:23:13;;;;;;;;;;;3.80;99.90;;;;;;5026139;28;19932;-78
2022/01/13 02:25:39;;;;;;;;;;;3.80;99.90;;;;;;5029006;28;21102;-76
2022/01/13 02:28:04;;;;;;;;;;;3.80;99.90;;;;;;5032158;28;19912;-77
2022/01/13 02:30:30;;;;;;;;;;;3.80;99.90;;;;;;5045168;28;20026;-76
2022/01/13 02:32:55;;;;;;;;;;;3.80;99.90;;;;;;5048910;28;19996;-76
2022/01/13 02:35:24;;;;;;;;;;;3.80;99.90;;;;;;5049764;28;19967;-76
2022/01/13 02:37:50;;;;;;;;;;;3.80;99.90;;;;;;5047919;28;19912;-76
2022/01/13 02:40:15;;;;;;;;;;;3.80;99.90;;;;;;5047149;28;20312;-76
2022/01/13 02:42:41;;;;;;;;;;;3.80;99.90;;;;;;5046097;28;19916;-76
2022/01/13 02:45:15;;;;;;;;;;;3.80;99.90;;;;;;5048483;28;19924;-76
2022/01/13 02:50:11;;;;;;;;;;;3.80;99.90;;;;;;5036700;28;19921;-76
2022/01/13 02:52:37;;;;;;;;;;;3.80;99.90;;;;;;5048467;28;19925;-75
2022/01/13 02:55:03;;;;;;;;;;;3.80;99.90;;;;;;5047453;28;19916;-75
2022/01/13 02:57:29;;;;;;;;;;;3.80;99.90;;;;;;5041834;28;19921;-77
2022/01/13 02:59:54;;;;;;;;;;;3.80;99.90;;;;;;5046116;28;19913;-76
2022/01/13 03:02:23;;;;;;;;;;;3.80;99.90;;;;;;5040515;28;19917;-76
2022/01/13 03:04:48;;;;;;;;;;;3.80;99.90;;;;;;5046293;28;19916;-76
2022/01/13 03:07:14;;;;;;;;;;;3.80;99.90;;;;;;5044468;28;19920;-76
2022/01/13 03:09:41;;;;;;;;;;;3.80;99.90;;;;;;5047247;28;19917;-76
2022/01/13 03:12:06;;;;;;;;;;;3.80;99.90;;;;;;5046561;28;19922;-75
2022/01/13 03:14:32;;;;;;;;;;;3.90;99.90;;;;;;5048012;28;19940;-76
2022/01/13 03:16:58;;;;;;;;;;;3.80;99.90;;;;;;5046466;28;19924;-76
2022/01/13 03:19:23;;;;;;;;;;;3.80;99.90;;;;;;5045322;28;19920;-75
2022/01/13 03:21:49;;;;;;;;;;;3.80;99.90;;;;;;5032817;28;19984;-75
2022/01/13 03:24:14;;;;;;;;;;;4.00;99.90;;;;;;5041529;28;19937;-75
2022/01/13 03:26:42;;;;;;;;;;;3.90;99.90;;;;;;5043070;28;19951;-76
2022/01/13 03:31:36;;;;;;;;;;;3.90;99.90;;;;;;5048960;28;20078;-75
2022/01/13 03:34:02;;;;;;;;;;;3.90;99.90;;;;;;5048527;28;19996;-76
2022/01/13 03:36:27;;;;;;;;;;;3.90;99.90;;;;;;5048611;28;20383;-75
2022/01/13 03:38:54;;;;;;;;;;;3.90;99.90;;;;;;5032473;28;20198;-75
2022/01/13 03:41:20;;;;;;;;;;;3.90;99.90;;;;;;5021305;28;19999;-75
2022/01/13 03:43:46;;;;;;;;;;;4.00;99.90;;;;;;5044747;28;19919;-76
2022/01/13 03:46:14;;;;;;;;;;;4.00;99.90;;;;;;5043767;28;19913;-75
2022/01/13 03:48:40;;;;;;;;;;;4.00;99.90;;;;;;5044216;28;19917;-75
2022/01/13 03:51:06;;;;;;;;;;;4.00;99.90;;;;;;5048273;28;19983;-76
2022/01/13 03:53:35;;;;;;;;;;;3.90;99.90;;;;;;5049014;28;19917;-75
2022/01/13 03:56:04;;;;;;;;;;;3.90;99.90;;;;;;5044259;28;19967;-76
2022/01/13 03:58:29;;;;;;;;;;;3.90;99.90;;;;;;5041267;28;19924;-76
2022/01/13 04:01:13;;;;;;;;;;;3.80;99.90;;;;;;5048003;28;20220;-76
2022/01/13 04:03:39;;;;;;;;;;;3.90;99.90;;;;;;5034297;28;19999;-75
2022/01/13 04:06:11;;;;;;;;;;;3.90;99.90;;;;;;5044654;28;19995;-76
2022/01/13 04:08:37;;;;;;;;;;;3.90;99.90;;;;;;5026790;28;19924;-77
2022/01/13 04:11:06;;;;;;;;;;;3.90;99.90;;;;;;5028756;28;20024;-77
2022/01/13 04:13:51;;;;;;;;;;;3.90;99.90;;;;;;5028454;28;19917;-77
2022/01/13 04:16:18;;;;;;;;;;;3.90;99.90;;;;;;5025318;28;20261;-76
2022/01/13 04:18:45;;;;;;;;;;;3.90;99.90;;;;;;5029023;28;19917;-76
2022/01/13 04:21:12;;;;;;;;;;;3.90;99.90;;;;;;5045737;28;19916;-79
2022/01/13 04:23:38;;;;;;;;;;;3.90;99.90;;;;;;5046347;28;20343;-76
2022/01/13 04:26:07;;;;;;;;;;;3.80;99.90;;;;;;5047580;28;19917;-78
2022/01/13 04:28:33;;;;;;;;;;;3.80;99.90;;;;;;5046972;28;19913;-76
2022/01/13 04:31:02;;;;;;;;;;;3.90;99.90;;;;;;5047241;28;19924;-77
2022/01/13 04:33:29;;;;;;;;;;;3.80;99.90;;;;;;5034605;28;19964;-76
2022/01/13 04:35:54;;;;;;;;;;;3.90;99.90;;;;;;5042858;28;20304;-77
2022/01/13 04:38:20;;;;;;;;;;;3.80;99.90;;;;;;5047838;28;19944;-75
2022/01/13 04:40:48;;;;;;;;;;;3.80;99.90;;;;;;5048570;28;20343;-75
2022/01/13 04:43:13;;;;;;;;;;;3.90;99.90;;;;;;5028086;28;19948;-77
2022/01/13 04:45:39;;;;;;;;;;;3.90;99.90;;;;;;5046741;28;19951;-76
2022/01/13 04:48:05;;;;;;;;;;;3.90;99.90;;;;;;5048959;28;19913;-75
2022/01/13 04:50:31;;;;;;;;;;;3.90;99.90;;;;;;5017551;28;20220;-76
2022/01/13 04:52:57;;;;;;;;;;;3.80;99.90;;;;;;5047267;28;19928;-76
2022/01/13 04:55:29;;;;;;;;;;;3.90;99.90;;;;;;5030794;28;20293;-75
2022/01/13 04:57:55;;;;;;;;;;;3.80;99.90;;;;;;5030121;28;20316;-76
2022/01/13 05:00:21;;;;;;;;;;;3.80;99.90;;;;;;5038799;28;20223;-76
2022/01/13 05:02:46;;;;;;;;;;;3.80;99.90;;;;;;5046598;28;19913;-76
2022/01/13 05:05:12;;;;;;;;;;;3.80;99.90;;;;;;5050299;28;20348;-77
2022/01/13 05:07:38;;;;;;;;;;;3.80;99.90;;;;;;5042037;28;20292;-76
2022/01/13 05:10:03;;;;;;;;;;;3.80;99.90;;;;;;5046322;28;20047;-77
2022/01/13 05:12:36;;;;;;;;;;;3.90;99.90;;;;;;5049280;28;20509;-76
2022/01/13 05:15:04;;;;;;;;;;;3.90;99.90;;;;;;5034493;28;19972;-76
2022/01/13 05:20:23;;;;;;;;;;;3.90;99.90;;;;;;5033593;28;19928;-76
2022/01/13 05:22:49;;;;;;;;;;;3.90;99.90;;;;;;5048767;28;20224;-76
2022/01/13 05:25:17;;;;;;;;;;;3.90;99.90;;;;;;5050528;28;19913;-76
2022/01/13 05:27:43;;;;;;;;;;;3.90;99.90;;;;;;5039823;28;19913;-76
2022/01/13 05:30:09;;;;;;;;;;;3.90;99.90;;;;;;5048823;28;20008;-76
2022/01/13 05:32:35;;;;;;;;;;;4.00;99.90;;;;;;5048304;28;19931;-76
2022/01/13 05:35:01;;;;;;;;;;;4.00;99.90;;;;;;5051162;28;19913;-77
2022/01/13 05:37:26;;;;;;;;;;;4.00;99.90;;;;;;5051061;28;19920;-75
2022/01/13 05:39:52;;;;;;;;;;;4.00;99.90;;;;;;5046653;28;19916;-76
2022/01/13 05:42:17;;;;;;;;;;;4.10;99.90;;;;;;5037005;28;19913;-75
2022/01/13 05:44:43;;;;;;;;;;;4.10;99.90;;;;;;5018892;28;19921;-75
2022/01/13 05:47:11;;;;;;;;;;;4.10;99.90;;;;;;5043054;28;20281;-75
2022/01/13 05:49:38;;;;;;;;;;;4.10;99.90;;;;;;5040502;28;19962;-76
2022/01/13 05:52:04;;;;;;;;;;;4.10;99.90;;;;;;5025451;28;19920;-75
2022/01/13 05:54:30;;;;;;;;;;;4.10;99.90;;;;;;5035245;28;19921;-76
2022/01/13 05:56:55;;;;;;;;;;;4.10;99.90;;;;;;5045629;28;19917;-75
2022/01/13 05:59:22;;;;;;;;;;;4.20;99.90;;;;;;5035970;28;20244;-76
2022/01/13 06:01:48;;;;;;;;;;;4.20;99.90;;;;;;5019570;28;20312;-75
2022/01/13 06:04:14;;;;;;;;;;;4.20;99.90;;;;;;5030738;28;19913;-76
2022/01/13 06:06:39;;;;;;;;;;;4.30;99.90;;;;;;5044908;28;19975;-76
2022/01/13 06:09:05;;;;;;;;;;;4.20;99.90;;;;;;5016816;28;19968;-75
2022/01/13 06:11:38;;;;;;;;;;;4.30;99.90;;;;;;5035360;28;20016;-76
2022/01/13 06:14:03;;;;;;;;;;;4.30;99.90;;;;;;5012528;28;20381;-75
2022/01/13 06:16:29;;;;;;;;;;;4.20;99.90;;;;;;5026977;28;20040;-75
2022/01/13 06:18:55;;;;;;;;;;;4.30;99.90;;;;;;5030284;28;19920;-76
2022/01/13 06:21:20;;;;;;;;;;;4.20;99.90;;;;;;5038892;28;20283;-75
2022/01/13 06:23:46;;;;;;;;;;;4.30;99.90;;;;;;5027825;28;19956;-76
2022/01/13 06:26:11;;;;;;;;;;;4.30;99.90;;;;;;5048202;28;19939;-76
2022/01/13 06:28:37;;;;;;;;;;;4.40;99.90;;;;;;5043743;28;20343;-80
2022/01/13 06:31:03;;;;;;;;;;;4.40;99.90;;;;;;5043356;28;19923;-75
2022/01/13 06:33:28;;;;;;;;;;;4.40;99.90;;;;;;5043050;28;19928;-76
2022/01/13 06:35:54;;;;;;;;;;;4.40;99.90;;;;;;5048377;28;19924;-76
2022/01/13 06:38:20;;;;;;;;;;;4.40;99.90;;;;;;5045953;28;19912;-76
2022/01/13 06:40:45;;;;;;;;;;;4.40;99.90;;;;;;5037849;28;19913;-76
2022/01/13 06:43:11;;;;;;;;;;;4.40;99.90;;;;;;5032982;28;19920;-76
2022/01/13 06:45:37;;;;;;;;;;;4.40;99.90;;;;;;5033626;28;19963;-76
2022/01/13 06:48:02;;;;;;;;;;;4.40;99.90;;;;;;5028492;28;19995;-77
2022/01/13 06:50:28;;;;;;;;;;;4.40;99.90;;;;;;5028805;28;19940;-77
2022/01/13 06:52:54;;;;;;;;;;;4.40;99.90;;;;;;5021330;28;20052;-77
2022/01/13 06:55:20;;;;;;;;;;;4.50;99.90;;;;;;5028414;28;20335;-79
2022/01/13 06:57:46;;;;;;;;;;;4.50;99.90;;;;;;5040440;28;19909;-76
2022/01/13 07:00:12;;;;;;;;;;;4.40;99.90;;;;;;5021079;28;19932;-76
2022/01/13 07:02:38;;;;;;;;;;;4.40;99.90;;;;;;5041713;28;19916;-76
2022/01/13 07:05:04;;;;;;;;;;;4.40;99.90;;;;;;5025092;28;19916;-76
2022/01/13 07:07:33;;;;;;;;;;;4.40;99.90;;;;;;5027991;28;19994;-76
2022/01/13 07:09:58;;;;;;;;;;;4.40;99.90;;;;;;5027667;28;19917;-76
2022/01/13 07:12:24;;;;;;;;;;;4.30;99.90;;;;;;5037434;28;20205;-77
2022/01/13 07:14:50;;;;;;;;;;;4.30;99.90;;;;;;5025941;28;19917;-76
2022/01/13 07:17:15;;;;;;;;;;;4.40;99.90;;;;;;5030016;28;19940;-76
2022/01/13 07:19:41;;;;;;;;;;;4.40;99.90;;;;;;5048455;28;19917;-76
2022/01/13 07:22:09;;;;;;;;;;;4.30;99.90;;;;;;5034544;28;19932;-76
2022/01/13 07:24:35;;;;;;;;;;;4.30;99.90;;;;;;5020327;28;19917;-76
2022/01/13 07:27:01;;;;;;;;;;;4.30;99.90;;;;;;5032784;28;19975;-77
2022/01/13 07:29:26;;;;;;;;;;;4.30;99.90;;;;;;5033861;28;19971;-76
2022/01/13 07:31:52;;;;;;;;;;;4.30;99.90;;;;;;5034140;28;19925;-76
2022/01/13 07:34:18;;;;;;;;;;;4.30;99.90;;;;;;5034755;28;19917;-76
2022/01/13 07:36:43;;;;;;;;;;;4.30;99.90;;;;;;5021541;28;20024;-78
2022/01/13 07:39:09;;;;;;;;;;;4.30;99.90;;;;;;5014133;28;19921;-77
2022/01/13 07:41:37;;;;;;;;;;;4.30;99.90;;;;;;5031493;28;19917;-77
2022/01/13 07:44:03;;;;;;;;;;;4.30;99.90;;;;;;5026590;28;19917;-76
2022/01/13 07:46:29;;;;;;;;;;;4.30;99.90;;;;;;5022154;28;19921;-77
2022/01/13 07:48:54;;;;;;;;;;;4.30;99.90;;;;;;5012903;28;19922;-76
2022/01/13 07:51:20;;;;;;;;;;;4.30;99.90;;;;;;5018846;28;19963;-75
2022/01/13 07:53:46;;;;;;;;;;;4.30;99.90;;;;;;5023177;28;19921;-76
2022/01/13 07:56:11;;;;;;;;;;;4.30;99.90;;;;;;5014323;28;19928;-76
2022/01/13 07:58:37;;;;;;;;;;;4.30;99.90;;;;;;5030931;28;19924;-77
2022/01/13 08:01:04;;;;;;;;;;;4.40;99.90;;;;;;5023670;28;20194;-78
2022/01/13 08:03:29;;;;;;;;;;;4.40;99.90;;;;;;5032629;28;19928;-76
2022/01/13 08:05:55;;;;;;;;;;;4.40;99.90;;;;;;5022079;28;20321;-76
2022/01/13 08:08:21;;;;;;;;;;;4.40;99.90;;;;;;5007161;28;19921;-75
2022/01/13 08:10:47;;;;;;;;;;;4.40;99.90;;;;;;5029465;28;20193;-77
2022/01/13 08:13:12;;;;;;;;;;;4.40;99.90;;;;;;5043535;28;19921;-76
2022/01/13 08:15:40;;;;;;;;;;;4.50;99.90;;;;;;5036218;28;19921;-76
2022/01/13 08:20:50;;;;;;;;;;;4.50;99.90;;;;;;5039954;28;20341;-76
2022/01/13 08:23:15;;;;;;;;;;;4.50;99.90;;;;;;5009767;28;19929;-76
2022/01/13 08:25:41;;;;;;;;;;;4.50;99.90;;;;;;5046059;28;19960;-77
2022/01/13 08:28:10;;;;;;;;;;;4.60;99.90;;;;;;5035044;28;19948;-75
2022/01/13 08:30:35;;;;;;;;;;;4.60;99.90;;;;;;5025689;28;19921;-76
2022/01/13 08:33:01;;;;;;;;;;;4.60;99.90;;;;;;5029903;28;20663;-76
2022/01/13 08:35:27;;;;;;;;;;;4.60;99.90;;;;;;5015552;28;19921;-76
2022/01/13 08:37:52;;;;;;;;;;;4.70;99.90;;;;;;5028209;28;19921;-77
2022/01/13 08:40:18;;;;;;;;;;;4.70;99.90;;;;;;5039750;28;20325;-76
2022/01/13 08:42:44;;;;;;;;;;;4.70;99.90;;;;;;5037463;28;19917;-77
2022/01/13 08:45:11;;;;;;;;;;;4.70;99.90;;;;;;5027076;28;19928;-77
2022/01/13 08:47:37;;;;;;;;;;;4.70;99.90;;;;;;5030233;28;19917;-77
2022/01/13 08:50:05;;;;;;;;;;;4.70;99.90;;;;;;5034530;28;20343;-77
2022/01/13 08:52:33;;;;;;;;;;;4.80;99.90;;;;;;5021066;28;20267;-76
2022/01/13 08:54:59;;;;;;;;;;;4.80;99.90;;;;;;5036110;28;19967;-76
2022/01/13 08:57:25;;;;;;;;;;;4.70;99.90;;;;;;5020152;28;19924;-77
2022/01/13 08:59:50;;;;;;;;;;;4.80;99.90;;;;;;5016599;28;19917;-77
2022/01/13 09:02:16;;;;;;;;;;;4.80;99.90;;;;;;5023979;28;20023;-77
2022/01/13 09:04:41;;;;;;;;;;;4.80;99.90;;;;;;5034112;28;19983;-77
2022/01/13 09:07:07;;;;;;;;;;;4.90;99.90;;;;;;5034920;28;19916;-76
2022/01/13 09:09:33;;;;;;;;;;;4.90;99.90;;;;;;5036366;28;20309;-77
2022/01/13 09:11:59;;;;;;;;;;;4.90;99.90;;;;;;5022545;28;19925;-76
2022/01/13 09:14:27;;;;;;;;;;;4.90;99.90;;;;;;5035172;28;19932;-78
2022/01/13 09:16:53;;;;;;;;;;;4.90;99.90;;;;;;5036927;28;19917;-78
2022/01/13 09:19:19;;;;;;;;;;;4.90;99.90;;;;;;5030360;28;19922;-78
2022/01/13 09:21:46;;;;;;;;;;;4.90;99.90;;;;;;5028893;28;19953;-77
2022/01/13 09:24:12;;;;;;;;;;;5.00;99.90;;;;;;5020187;28;19995;-77
2022/01/13 09:26:38;;;;;;;;;;;5.00;99.90;;;;;;5032593;28;19919;-76
2022/01/13 09:29:05;;;;;;;;;;;5.10;99.90;;;;;;5027867;28;19913;-77
2022/01/13 09:31:32;;;;;;;;;;;5.10;99.90;;;;;;5019726;28;20235;-78
2022/01/13 09:33:58;;;;;;;;;;;5.10;99.90;;;;;;5031000;28;19961;-77
2022/01/13 09:36:23;;;;;;;;;;;5.10;99.90;;;;;;5038697;28;19917;-77
2022/01/13 09:38:49;;;;;;;;;;;5.20;99.90;;;;;;5003662;28;19917;-76
2022/01/13 09:41:15;;;;;;;;;;;5.20;99.90;;;;;;5019880;28;19917;-77
2022/01/13 09:43:42;;;;;;;;;;;5.30;99.90;;;;;;5033688;28;19960;-76
2022/01/13 09:46:08;;;;;;;;;;;5.30;99.90;;;;;;5015777;28;19917;-77
2022/01/13 09:48:37;;;;;;;;;;;5.30;99.90;;;;;;5036763;28;20308;-77
2022/01/13 09:51:03;;;;;;;;;;;5.30;99.90;;;;;;5033239;28;19917;-78
2022/01/13 09:53:28;;;;;;;;;;;5.30;99.90;;;;;;5026980;28;19921;-77
2022/01/13 09:55:54;;;;;;;;;;;5.40;99.90;;;;;;5030333;28;20255;-77
2022/01/13 09:58:19;;;;;;;;;;;5.40;99.90;;;;;;5055869;28;19920;-78
2022/01/13 10:00:45;;;;;;;;;;;5.40;99.90;;;;;;5055550;28;19979;-78
2022/01/13 10:03:16;;;;;;;;;;;5.50;99.90;;;;;;5047258;28;19921;-77
2022/01/13 10:05:52;;;;;;;;;;;5.50;99.90;;;;;;5026268;28;20327;-77
2022/01/13 10:08:21;;;;;;;;;;;5.60;99.90;;;;;;5034537;28;19913;-77
2022/01/13 10:10:47;;;;;;;;;;;5.60;99.90;;;;;;5031037;28;19920;-78
2022/01/13 10:13:22;;;;;;;;;;;5.60;99.90;;;;;;5036271;28;19918;-77
2022/01/13 10:18:40;;;;;;;;;;;5.60;99.90;;;;;;5035683;28;19960;-77
2022/01/13 10:21:10;;;;;;;;;;;5.70;99.90;;;;;;5032366;28;20015;-80
2022/01/13 10:23:35;;;;;;;;;;;5.70;99.90;;;;;;5021878;28;20300;-80
2022/01/13 10:26:08;;;;;;;;;;;5.70;99.90;;;;;;5012995;28;19928;-78
2022/01/13 10:28:34;;;;;;;;;;;5.70;99.90;;;;;;5015707;28;19921;-77
2022/01/13 10:31:00;;;;;;;;;;;5.80;99.90;;;;;;5017170;28;19914;-79
2022/01/13 10:33:29;;;;;;;;;;;5.80;99.90;;;;;;5020469;28;19929;-76
2022/01/13 10:36:04;;;;;;;;;;;5.80;99.90;;;;;;5005667;28;20587;-77
2022/01/13 10:38:48;;;;;;;;;;;5.80;99.90;;;;;;4998936;28;19913;-78
2022/01/13 10:41:29;;;;;;;;;;;5.80;99.90;;;;;;5028829;28;20316;-78
2022/01/13 10:44:10;;;;;;;;;;;5.80;99.90;;;;;;5017242;28;20351;-76
2022/01/13 10:46:57;;;;;;;;;;;5.80;99.90;;;;;;5035223;28;19960;-77
2022/01/13 10:49:30;;;;;;;;;;;5.90;99.90;;;;;;5035573;28;19955;-77
2022/01/13 10:52:14;;;;;;;;;;;6.00;99.90;;;;;;5035599;28;19920;-77
2022/01/13 10:54:40;;;;;;;;;;;6.00;99.90;;;;;;5035713;28;19921;-77
2022/01/13 10:57:19;;;;;;;;;;;6.10;99.90;;;;;;5022549;28;20305;-79
2022/01/13 10:59:45;;;;;;;;;;;6.10;99.90;;;;;;5014876;28;19917;-77
2022/01/13 11:02:11;;;;;;;;;;;6.10;99.90;;;;;;5011919;28;19964;-77
2022/01/13 11:04:37;;;;;;;;;;;6.20;99.90;;;;;;5005179;28;19964;-77
2022/01/13 11:07:17;;;;;;;;;;;6.20;99.90;;;;;;5021017;28;19913;-77
2022/01/13 11:09:51;;;;;;;;;;;6.20;99.90;;;;;;5023711;28;19960;-76
2022/01/13 11:12:17;;;;;;;;;;;6.20;99.90;;;;;;5011946;28;19932;-77
2022/01/13 11:14:43;;;;;;;;;;;6.20;99.90;;;;;;5019545;28;20000;-77
2022/01/13 11:17:10;;;;;;;;;;;6.30;99.90;;;;;;5003363;28;19972;-78
2022/01/13 11:19:38;;;;;;;;;;;6.30;99.90;;;;;;5002687;28;19917;-78
2022/01/13 11:22:04;;;;;;;;;;;6.30;99.90;;;;;;5017808;28;19972;-77
2022/01/13 11:24:29;;;;;;;;;;;6.30;99.90;;;;;;5041680;28;20306;-77
2022/01/13 11:26:55;;;;;;;;;;;6.40;99.90;;;;;;5036198;28;19924;-78
2022/01/13 11:29:22;;;;;;;;;;;6.40;99.90;;;;;;5031662;28;19921;-78
2022/01/13 11:31:49;;;;;;;;;;;6.40;99.90;;;;;;5010225;28;19916;-78
2022/01/13 11:34:16;;;;;;;;;;;6.40;99.90;;;;;;5014700;28;20232;-77
2022/01/13 11:39:45;;;;;;;;;;;6.50;99.90;;;;;;5035098;28;19968;-77
2022/01/13 11:42:14;;;;;;;;;;;6.50;99.90;;;;;;5031668;28;20321;-78
2022/01/13 11:44:40;;;;;;;;;;;6.50;99.90;;;;;;5023106;28;19925;-78
2022/01/13 11:47:19;;;;;;;;;;;6.40;99.90;;;;;;5031410;28;19917;-77
2022/01/13 11:49:57;;;;;;;;;;;6.40;99.90;;;;;;5034457;28;19917;-77
2022/01/13 11:52:43;;;;;;;;;;;6.40;99.90;;;;;;5022281;28;19963;-77
2022/01/13 11:55:32;;;;;;;;;;;6.40;99.90;;;;;;5028526;28;20355;-78
2022/01/13 11:58:11;;;;;;;;;;;6.30;99.90;;;;;;5030465;28;19917;-78
2022/01/13 12:00:38;;;;;;;;;;;6.30;99.90;;;;;;5036053;28;19921;-79
2022/01/13 12:03:20;;;;;;;;;;;6.30;99.90;;;;;;5017179;28;20320;-77
2022/01/13 12:05:46;;;;;;;;;;;6.30;99.90;;;;;;5034917;28;19917;-81
2022/01/13 12:08:31;;;;;;;;;;;6.30;99.90;;;;;;5031868;28;20264;-77
2022/01/13 12:10:57;;;;;;;;;;;6.20;99.90;;;;;;5023746;28;19936;-77
2022/01/13 12:13:25;;;;;;;;;;;6.30;99.90;;;;;;5014445;28;19979;-78
2022/01/13 12:15:51;;;;;;;;;;;6.30;99.90;;;;;;5035112;28;19920;-78
2022/01/13 12:18:17;;;;;;;;;;;6.30;99.90;;;;;;5034753;28;19921;-79
2022/01/13 12:20:59;;;;;;;;;;;6.30;99.90;;;;;;5033766;28;19917;-81
2022/01/13 12:23:43;;;;;;;;;;;6.30;99.90;;;;;;5019150;28;19921;-79
2022/01/13 12:26:29;;;;;;;;;;;6.30;99.90;;;;;;5031613;28;19913;-78
2022/01/13 12:29:13;;;;;;;;;;;6.30;99.90;;;;;;5025962;28;19929;-78
2022/01/13 12:31:52;;;;;;;;;;;6.30;99.90;;;;;;5030917;28;19920;-79
2022/01/13 12:34:21;;;;;;;;;;;6.30;99.90;;;;;;5023649;28;19929;-78
2022/01/13 12:36:47;;;;;;;;;;;6.30;99.90;;;;;;5029845;28;19913;-77
2022/01/13 12:39:14;;;;;;;;;;;6.30;99.90;;;;;;5036870;28;20209;-78
2022/01/13 12:42:01;;;;;;;;;;;6.30;99.90;;;;;;5037578;28;19921;-78
2022/01/13 12:47:13;;;;;;;;;;;6.30;99.90;;;;;;5040045;28;19988;-78
2022/01/13 12:49:38;;;;;;;;;;;6.30;99.90;;;;;;5036274;28;19917;-77
2022/01/13 12:52:04;;;;;;;;;;;6.30;99.90;;;;;;5026536;28;20307;-79
2022/01/13 12:54:30;;;;;;;;;;;6.30;99.90;;;;;;5037799;28;19923;-78
2022/01/13 12:56:56;;;;;;;;;;;6.30;99.90;;;;;;5035604;28;20224;-78
2022/01/13 12:59:22;;;;;;;;;;;6.30;99.90;;;;;;5030510;28;19920;-78
2022/01/13 13:01:47;;;;;;;;;;;6.30;99.90;;;;;;5021427;28;19910;-78
2022/01/13 13:04:13;;;;;;;;;;;6.40;99.90;;;;;;5005703;28;19920;-79
2022/01/13 13:06:40;;;;;;;;;;;6.30;99.90;;;;;;5008414;28;20213;-78
2022/01/13 13:09:07;;;;;;;;;;;6.40;99.90;;;;;;5034655;28;19916;-77
2022/01/13 13:11:34;;;;;;;;;;;6.40;99.90;;;;;;5022482;28;19968;-78
2022/01/13 13:14:00;;;;;;;;;;;6.30;99.90;;;;;;5030718;28;19952;-78
2022/01/13 13:16:26;;;;;;;;;;;6.30;99.90;;;;;;5031611;28;19925;-80
2022/01/13 13:18:52;;;;;;;;;;;6.30;99.90;;;;;;5033566;28;19914;-78
2022/01/13 13:21:18;;;;;;;;;;;6.30;99.90;;;;;;5041347;28;19948;-78
2022/01/13 13:23:44;;;;;;;;;;;6.30;99.90;;;;;;5035033;28;19971;-79
2022/01/13 13:26:12;;;;;;;;;;;6.30;99.90;;;;;;5033552;28;20380;-77
2022/01/13 13:28:38;;;;;;;;;;;6.30;99.90;;;;;;5042342;28;20015;-78
2022/01/13 13:31:17;;;;;;;;;;;6.30;99.90;;;;;;5016879;28;20368;-78
2022/01/13 13:33:47;;;;;;;;;;;6.30;99.90;;;;;;5027586;28;19917;-79
2022/01/13 13:36:15;;;;;;;;;;;6.30;99.90;;;;;;5032600;28;19913;-78
2022/01/13 13:38:44;;;;;;;;;;;6.30;99.90;;;;;;5040074;28;19920;-78
2022/01/13 13:41:11;;;;;;;;;;;6.30;99.90;;;;;;5044544;28;20202;-78
2022/01/13 13:43:36;;;;;;;;;;;6.20;99.90;;;;;;5037695;28;19917;-78
2022/01/13 13:46:02;;;;;;;;;;;6.20;99.90;;;;;;5032741;28;20299;-77
2022/01/13 13:48:29;;;;;;;;;;;6.20;99.90;;;;;;5034132;28;19913;-77
2022/01/13 13:50:54;;;;;;;;;;;6.20;99.90;;;;;;5027870;28;19913;-77
2022/01/13 13:53:20;;;;;;;;;;;6.30;99.90;;;;;;5014716;28;19921;-77
2022/01/13 13:55:56;;;;;;;;;;;6.30;99.90;;;;;;5021503;28;19927;-77
2022/01/13 13:58:21;;;;;;;;;;;6.30;99.90;;;;;;5017734;28;19996;-78
2022/01/13 14:00:47;;;;;;;;;;;6.40;99.90;;;;;;5018904;28;20008;-77
2022/01/13 14:03:20;;;;;;;;;;;6.40;99.90;;;;;;5019407;28;19952;-78
2022/01/13 14:05:46;;;;;;;;;;;6.30;99.90;;;;;;5030766;28;19971;-78
2022/01/13 14:08:11;;;;;;;;;;;6.30;99.90;;;;;;5032700;28;19913;-78
2022/01/13 14:10:37;;;;;;;;;;;6.30;99.90;;;;;;5018442;28;19913;-78
2022/01/13 14:13:02;;;;;;;;;;;6.30;99.90;;;;;;5029731;28;19929;-78
2022/01/13 14:15:36;;;;;;;;;;;6.20;99.90;;;;;;5025323;28;19912;-78
2022/01/13 14:18:08;;;;;;;;;;;6.20;99.90;;;;;;5031009;28;20308;-79
2022/01/13 14:20:35;;;;;;;;;;;6.20;99.90;;;;;;5039244;28;19939;-79
2022/01/13 14:23:02;;;;;;;;;;;6.20;99.90;;;;;;5024323;28;19926;-78
2022/01/13 14:25:29;;;;;;;;;;;6.20;99.90;;;;;;5030981;28;19959;-79
2022/01/13 14:27:56;;;;;;;;;;;6.20;99.90;;;;;;5042695;28;19951;-78
2022/01/13 14:30:48;;;;;;;;;;;6.10;99.90;;;;;;5040389;28;19975;-78
2022/01/13 14:33:33;;;;;;;;;;;6.20;99.90;;;;;;5023455;28;19921;-79
2022/01/13 14:36:01;;;;;;;;;;;6.20;99.90;;;;;;5027653;28;19963;-79
2022/01/13 14:38:33;;;;;;;;;;;6.20;99.90;;;;;;5034171;28;19925;-79
2022/01/13 14:40:58;;;;;;;;;;;6.10;99.90;;;;;;5031113;28;19921;-79
2022/01/13 14:43:24;;;;;;;;;;;6.10;99.90;;;;;;5021712;28;20528;-80
2022/01/13 14:46:08;;;;;;;;;;;6.20;99.90;;;;;;5019172;28;19956;-78
2022/01/13 14:48:34;;;;;;;;;;;6.10;99.90;;;;;;5031750;28;19913;-78
2022/01/13 14:51:03;;;;;;;;;;;6.10;99.90;;;;;;5025622;28;19921;-79
2022/01/13 14:53:28;;;;;;;;;;;6.10;99.90;;;;;;5034314;28;20028;-79
2022/01/13 14:55:54;;;;;;;;;;;6.10;99.90;;;;;;5031651;28;20017;-79
2022/01/13 14:58:19;;;;;;;;;;;6.00;99.90;;;;;;5032364;28;20308;-78
2022/01/13 15:00:46;;;;;;;;;;;6.10;99.90;;;;;;5034496;28;19924;-78
2022/01/13 15:03:11;;;;;;;;;;;6.00;99.90;;;;;;5028883;28;19917;-79
2022/01/13 15:05:37;;;;;;;;;;;6.10;99.90;;;;;;5035480;28;19917;-81
2022/01/13 15:08:02;;;;;;;;;;;6.10;99.90;;;;;;5033084;28;19942;-79
2022/01/13 15:10:29;;;;;;;;;;;6.00;99.90;;;;;;5041866;28;19913;-79